sensor_id;sensor_type;location;lat;lon;timestamp;P1;durP1;ratioP1;P2;durP2;ratioP2
69463;SDS011;56665;41.106;16.688;2023-04-03T00:02:52;13.63;;;3.60;;
69463;SDS011;56665;41.106;16.688;2023-04-03T00:05:56;10.80;;;3.22;;
69463;SDS011;56665;41.106;16.688;2023-04-03T00:09:00;7.10;;;3.17;;
69463;SDS011;56665;41.106;16.688;2023-04-03T00:12:05;7.82;;;3.30;;
69463;SDS011;56665;41.106;16.688;2023-04-03T00:15:10;9.82;;;3.28;;
69463;SDS011;56665;41.106;16.688;2023-04-03T00:18:14;8.57;;;3.10;;
69463;SDS011;56665;41.106;16.688;2023-04-03T00:21:21;7.63;;;3.33;;
69463;SDS011;56665;41.106;16.688;2023-04-03T00:24:27;10.80;;;3.50;;
69463;SDS011;56665;41.106;16.688;2023-04-03T00:27:31;6.78;;;2.90;;
69463;SDS011;56665;41.106;16.688;2023-04-03T00:30:34;8.10;;;3.20;;
69463;SDS011;56665;41.106;16.688;2023-04-03T00:33:38;7.75;;;3.33;;
69463;SDS011;56665;41.106;16.688;2023-04-03T00:36:43;12.40;;;3.30;;
69463;SDS011;56665;41.106;16.688;2023-04-03T00:39:48;8.57;;;3.03;;
69463;SDS011;56665;41.106;16.688;2023-04-03T00:42:58;7.68;;;3.20;;
69463;SDS011;56665;41.106;16.688;2023-04-03T00:46:02;12.82;;;3.83;;
69463;SDS011;56665;41.106;16.688;2023-04-03T00:49:08;8.20;;;3.15;;
69463;SDS011;56665;41.106;16.688;2023-04-03T00:52:13;14.35;;;3.85;;
69463;SDS011;56665;41.106;16.688;2023-04-03T00:55:21;12.05;;;4.10;;
69463;SDS011;56665;41.106;16.688;2023-04-03T00:58:28;8.43;;;3.20;;
69463;SDS011;56665;41.106;16.688;2023-04-03T01:01:37;7.97;;;3.28;;
69463;SDS011;56665;41.106;16.688;2023-04-03T01:04:43;7.57;;;2.97;;
69463;SDS011;56665;41.106;16.688;2023-04-03T01:07:48;8.88;;;3.20;;
69463;SDS011;56665;41.106;16.688;2023-04-03T01:10:54;8.85;;;3.03;;
69463;SDS011;56665;41.106;16.688;2023-04-03T01:14:00;11.80;;;2.95;;
69463;SDS011;56665;41.106;16.688;2023-04-03T01:17:23;13.05;;;3.55;;
69463;SDS011;56665;41.106;16.688;2023-04-03T01:24:34;11.27;;;3.08;;
69463;SDS011;56665;41.106;16.688;2023-04-03T01:27:42;10.63;;;2.80;;
69463;SDS011;56665;41.106;16.688;2023-04-03T01:34:31;10.57;;;3.20;;
69463;SDS011;56665;41.106;16.688;2023-04-03T01:37:37;7.18;;;3.10;;
69463;SDS011;56665;41.106;16.688;2023-04-03T01:40:43;11.65;;;2.88;;
69463;SDS011;56665;41.106;16.688;2023-04-03T01:43:50;10.05;;;3.00;;
69463;SDS011;56665;41.106;16.688;2023-04-03T01:46:55;10.52;;;3.45;;
69463;SDS011;56665;41.106;16.688;2023-04-03T01:50:02;7.82;;;2.83;;
69463;SDS011;56665;41.106;16.688;2023-04-03T01:53:10;9.83;;;3.37;;
69463;SDS011;56665;41.106;16.688;2023-04-03T01:56:13;7.57;;;2.85;;
69463;SDS011;56665;41.106;16.688;2023-04-03T01:59:17;8.02;;;2.80;;
69463;SDS011;56665;41.106;16.688;2023-04-03T02:02:22;8.70;;;3.25;;
69463;SDS011;56665;41.106;16.688;2023-04-03T02:05:28;6.60;;;2.60;;
69463;SDS011;56665;41.106;16.688;2023-04-03T02:08:33;7.43;;;2.60;;
69463;SDS011;56665;41.106;16.688;2023-04-03T02:11:39;7.10;;;2.75;;
69463;SDS011;56665;41.106;16.688;2023-04-03T02:14:42;5.68;;;2.40;;
69463;SDS011;56665;41.106;16.688;2023-04-03T02:17:49;6.35;;;2.40;;
69463;SDS011;56665;41.106;16.688;2023-04-03T02:20:53;4.93;;;2.05;;
69463;SDS011;56665;41.106;16.688;2023-04-03T02:23:59;6.05;;;2.38;;
69463;SDS011;56665;41.106;16.688;2023-04-03T02:27:03;5.55;;;2.20;;
69463;SDS011;56665;41.106;16.688;2023-04-03T02:30:08;4.43;;;2.13;;
69463;SDS011;56665;41.106;16.688;2023-04-03T02:33:14;5.05;;;2.00;;
69463;SDS011;56665;41.106;16.688;2023-04-03T02:36:19;4.70;;;2.20;;
69463;SDS011;56665;41.106;16.688;2023-04-03T02:39:29;8.70;;;2.40;;
69463;SDS011;56665;41.106;16.688;2023-04-03T02:42:36;5.47;;;2.17;;
69463;SDS011;56665;41.106;16.688;2023-04-03T02:45:40;5.97;;;1.92;;
69463;SDS011;56665;41.106;16.688;2023-04-03T02:48:44;4.97;;;1.75;;
69463;SDS011;56665;41.106;16.688;2023-04-03T02:51:49;3.20;;;1.67;;
69463;SDS011;56665;41.106;16.688;2023-04-03T02:54:54;2.97;;;1.47;;
69463;SDS011;56665;41.106;16.688;2023-04-03T02:57:59;5.72;;;1.70;;
69463;SDS011;56665;41.106;16.688;2023-04-03T03:01:05;4.32;;;1.30;;
69463;SDS011;56665;41.106;16.688;2023-04-03T03:04:10;6.20;;;1.58;;
69463;SDS011;56665;41.106;16.688;2023-04-03T03:07:17;4.03;;;1.48;;
69463;SDS011;56665;41.106;16.688;2023-04-03T03:10:21;4.35;;;1.23;;
69463;SDS011;56665;41.106;16.688;2023-04-03T03:13:27;6.95;;;1.65;;
69463;SDS011;56665;41.106;16.688;2023-04-03T03:16:31;7.63;;;1.52;;
69463;SDS011;56665;41.106;16.688;2023-04-03T03:19:35;6.05;;;1.70;;
69463;SDS011;56665;41.106;16.688;2023-04-03T03:22:39;5.85;;;1.90;;
69463;SDS011;56665;41.106;16.688;2023-04-03T03:25:47;9.87;;;2.27;;
69463;SDS011;56665;41.106;16.688;2023-04-03T03:28:52;4.78;;;1.40;;
69463;SDS011;56665;41.106;16.688;2023-04-03T03:31:57;7.03;;;1.75;;
69463;SDS011;56665;41.106;16.688;2023-04-03T03:35:02;5.22;;;1.52;;
69463;SDS011;56665;41.106;16.688;2023-04-03T03:38:06;4.03;;;1.60;;
69463;SDS011;56665;41.106;16.688;2023-04-03T03:41:10;7.20;;;1.90;;
69463;SDS011;56665;41.106;16.688;2023-04-03T03:44:15;4.18;;;1.50;;
69463;SDS011;56665;41.106;16.688;2023-04-03T03:47:20;4.57;;;1.80;;
69463;SDS011;56665;41.106;16.688;2023-04-03T03:50:24;4.57;;;1.38;;
69463;SDS011;56665;41.106;16.688;2023-04-03T03:53:28;6.07;;;1.83;;
69463;SDS011;56665;41.106;16.688;2023-04-03T03:56:37;5.60;;;1.60;;
69463;SDS011;56665;41.106;16.688;2023-04-03T03:59:43;6.22;;;1.63;;
69463;SDS011;56665;41.106;16.688;2023-04-03T04:02:48;6.82;;;1.40;;
69463;SDS011;56665;41.106;16.688;2023-04-03T04:05:55;4.70;;;1.55;;
69463;SDS011;56665;41.106;16.688;2023-04-03T04:08:59;7.22;;;1.77;;
69463;SDS011;56665;41.106;16.688;2023-04-03T04:12:05;4.43;;;1.52;;
69463;SDS011;56665;41.106;16.688;2023-04-03T04:15:10;6.57;;;1.55;;
69463;SDS011;56665;41.106;16.688;2023-04-03T04:18:15;5.60;;;1.65;;
69463;SDS011;56665;41.106;16.688;2023-04-03T04:21:21;5.10;;;1.92;;
69463;SDS011;56665;41.106;16.688;2023-04-03T04:24:28;7.00;;;2.13;;
69463;SDS011;56665;41.106;16.688;2023-04-03T04:27:33;8.87;;;2.30;;
69463;SDS011;56665;41.106;16.688;2023-04-03T04:30:39;7.78;;;3.17;;
69463;SDS011;56665;41.106;16.688;2023-04-03T04:33:44;7.43;;;1.80;;
69463;SDS011;56665;41.106;16.688;2023-04-03T04:36:50;9.50;;;2.67;;
69463;SDS011;56665;41.106;16.688;2023-04-03T04:39:55;8.60;;;2.40;;
69463;SDS011;56665;41.106;16.688;2023-04-03T04:42:59;8.97;;;2.23;;
69463;SDS011;56665;41.106;16.688;2023-04-03T04:46:07;5.57;;;1.73;;
69463;SDS011;56665;41.106;16.688;2023-04-03T04:49:20;6.38;;;2.15;;
69463;SDS011;56665;41.106;16.688;2023-04-03T04:52:23;7.60;;;2.08;;
69463;SDS011;56665;41.106;16.688;2023-04-03T04:55:29;7.00;;;2.17;;
69463;SDS011;56665;41.106;16.688;2023-04-03T04:58:33;8.82;;;2.20;;
69463;SDS011;56665;41.106;16.688;2023-04-03T05:01:39;5.77;;;2.00;;
69463;SDS011;56665;41.106;16.688;2023-04-03T05:04:47;6.50;;;2.08;;
69463;SDS011;56665;41.106;16.688;2023-04-03T05:07:57;6.18;;;1.95;;
69463;SDS011;56665;41.106;16.688;2023-04-03T05:11:05;9.32;;;2.38;;
69463;SDS011;56665;41.106;16.688;2023-04-03T05:14:10;10.10;;;2.70;;
69463;SDS011;56665;41.106;16.688;2023-04-03T05:17:14;5.75;;;2.70;;
69463;SDS011;56665;41.106;16.688;2023-04-03T05:20:23;6.55;;;2.40;;
69463;SDS011;56665;41.106;16.688;2023-04-03T05:23:27;7.93;;;2.55;;
69463;SDS011;56665;41.106;16.688;2023-04-03T05:26:32;7.30;;;2.53;;
69463;SDS011;56665;41.106;16.688;2023-04-03T05:29:38;10.63;;;2.85;;
69463;SDS011;56665;41.106;16.688;2023-04-03T05:32:43;11.82;;;2.72;;
69463;SDS011;56665;41.106;16.688;2023-04-03T05:35:55;6.35;;;2.78;;
69463;SDS011;56665;41.106;16.688;2023-04-03T05:39:05;11.65;;;2.63;;
69463;SDS011;56665;41.106;16.688;2023-04-03T05:42:11;6.28;;;2.13;;
69463;SDS011;56665;41.106;16.688;2023-04-03T05:45:16;6.27;;;2.40;;
69463;SDS011;56665;41.106;16.688;2023-04-03T05:48:20;6.43;;;2.00;;
69463;SDS011;56665;41.106;16.688;2023-04-03T05:51:33;6.55;;;2.30;;
69463;SDS011;56665;41.106;16.688;2023-04-03T05:54:43;6.18;;;2.30;;
69463;SDS011;56665;41.106;16.688;2023-04-03T05:57:55;8.40;;;2.50;;
69463;SDS011;56665;41.106;16.688;2023-04-03T06:00:59;6.97;;;2.40;;
69463;SDS011;56665;41.106;16.688;2023-04-03T06:04:05;15.45;;;3.75;;
69463;SDS011;56665;41.106;16.688;2023-04-03T06:07:12;6.85;;;2.40;;
69463;SDS011;56665;41.106;16.688;2023-04-03T06:10:18;6.32;;;3.05;;
69463;SDS011;56665;41.106;16.688;2023-04-03T06:13:24;10.15;;;4.30;;
69463;SDS011;56665;41.106;16.688;2023-04-03T06:16:28;18.93;;;8.40;;
69463;SDS011;56665;41.106;16.688;2023-04-03T06:19:32;22.05;;;5.22;;
69463;SDS011;56665;41.106;16.688;2023-04-03T06:22:36;16.17;;;3.88;;
69463;SDS011;56665;41.106;16.688;2023-04-03T06:25:42;9.18;;;3.63;;
69463;SDS011;56665;41.106;16.688;2023-04-03T06:28:45;6.93;;;3.60;;
69463;SDS011;56665;41.106;16.688;2023-04-03T06:31:50;12.47;;;3.77;;
69463;SDS011;56665;41.106;16.688;2023-04-03T06:34:55;9.05;;;4.15;;
69463;SDS011;56665;41.106;16.688;2023-04-03T06:38:01;12.63;;;4.63;;
69463;SDS011;56665;41.106;16.688;2023-04-03T06:41:06;9.48;;;4.72;;
69463;SDS011;56665;41.106;16.688;2023-04-03T06:44:11;12.60;;;5.15;;
69463;SDS011;56665;41.106;16.688;2023-04-03T06:47:18;11.63;;;4.18;;
69463;SDS011;56665;41.106;16.688;2023-04-03T06:50:22;11.53;;;4.90;;
69463;SDS011;56665;41.106;16.688;2023-04-03T06:53:27;10.25;;;4.70;;
69463;SDS011;56665;41.106;16.688;2023-04-03T06:56:31;12.25;;;4.88;;
69463;SDS011;56665;41.106;16.688;2023-04-03T06:59:34;12.13;;;5.35;;
69463;SDS011;56665;41.106;16.688;2023-04-03T07:02:38;14.63;;;5.90;;
69463;SDS011;56665;41.106;16.688;2023-04-03T07:05:42;12.30;;;5.33;;
69463;SDS011;56665;41.106;16.688;2023-04-03T07:08:48;16.65;;;5.80;;
69463;SDS011;56665;41.106;16.688;2023-04-03T07:11:52;16.85;;;5.78;;
69463;SDS011;56665;41.106;16.688;2023-04-03T07:14:55;13.77;;;5.63;;
69463;SDS011;56665;41.106;16.688;2023-04-03T07:17:59;14.90;;;6.30;;
69463;SDS011;56665;41.106;16.688;2023-04-03T07:21:03;18.77;;;7.73;;
69463;SDS011;56665;41.106;16.688;2023-04-03T07:24:09;14.32;;;7.45;;
69463;SDS011;56665;41.106;16.688;2023-04-03T07:27:14;14.82;;;6.30;;
69463;SDS011;56665;41.106;16.688;2023-04-03T07:30:20;16.02;;;7.20;;
69463;SDS011;56665;41.106;16.688;2023-04-03T07:33:25;17.15;;;6.40;;
69463;SDS011;56665;41.106;16.688;2023-04-03T07:36:29;15.10;;;6.30;;
69463;SDS011;56665;41.106;16.688;2023-04-03T07:39:32;14.55;;;5.78;;
69463;SDS011;56665;41.106;16.688;2023-04-03T07:42:36;17.50;;;6.65;;
69463;SDS011;56665;41.106;16.688;2023-04-03T07:45:40;14.02;;;5.93;;
69463;SDS011;56665;41.106;16.688;2023-04-03T07:48:44;14.23;;;6.57;;
69463;SDS011;56665;41.106;16.688;2023-04-03T07:51:48;16.80;;;6.90;;
69463;SDS011;56665;41.106;16.688;2023-04-03T07:54:54;16.27;;;7.20;;
69463;SDS011;56665;41.106;16.688;2023-04-03T07:57:58;13.35;;;6.53;;
69463;SDS011;56665;41.106;16.688;2023-04-03T08:01:01;14.90;;;5.97;;
69463;SDS011;56665;41.106;16.688;2023-04-03T08:04:06;16.15;;;6.20;;
69463;SDS011;56665;41.106;16.688;2023-04-03T08:07:09;14.77;;;6.00;;
69463;SDS011;56665;41.106;16.688;2023-04-03T08:10:14;12.82;;;6.70;;
69463;SDS011;56665;41.106;16.688;2023-04-03T08:13:18;20.70;;;7.70;;
69463;SDS011;56665;41.106;16.688;2023-04-03T08:16:24;13.38;;;7.85;;
69463;SDS011;56665;41.106;16.688;2023-04-03T08:19:31;14.10;;;6.10;;
69463;SDS011;56665;41.106;16.688;2023-04-03T08:22:35;14.40;;;6.00;;
69463;SDS011;56665;41.106;16.688;2023-04-03T08:25:42;15.30;;;5.90;;
69463;SDS011;56665;41.106;16.688;2023-04-03T08:28:46;13.02;;;5.07;;
69463;SDS011;56665;41.106;16.688;2023-04-03T08:31:50;13.57;;;5.60;;
69463;SDS011;56665;41.106;16.688;2023-04-03T08:34:37;14.85;;;6.28;;
69463;SDS011;56665;41.106;16.688;2023-04-03T08:37:42;13.05;;;5.93;;
69463;SDS011;56665;41.106;16.688;2023-04-03T08:40:46;14.38;;;6.18;;
69463;SDS011;56665;41.106;16.688;2023-04-03T08:47:04;22.10;;;9.65;;
69463;SDS011;56665;41.106;16.688;2023-04-03T08:50:15;23.47;;;10.77;;
69463;SDS011;56665;41.106;16.688;2023-04-03T08:53:21;16.83;;;8.55;;
69463;SDS011;56665;41.106;16.688;2023-04-03T08:56:31;17.33;;;8.65;;
69463;SDS011;56665;41.106;16.688;2023-04-03T08:59:37;19.50;;;7.88;;
69463;SDS011;56665;41.106;16.688;2023-04-03T09:02:46;14.77;;;7.28;;
69463;SDS011;56665;41.106;16.688;2023-04-03T09:09:14;15.18;;;8.20;;
69463;SDS011;56665;41.106;16.688;2023-04-03T09:12:27;19.23;;;8.55;;
69463;SDS011;56665;41.106;16.688;2023-04-03T09:15:35;19.98;;;10.15;;
69463;SDS011;56665;41.106;16.688;2023-04-03T09:18:39;22.67;;;9.55;;
69463;SDS011;56665;41.106;16.688;2023-04-03T09:21:49;20.50;;;8.90;;
69463;SDS011;56665;41.106;16.688;2023-04-03T09:28:12;19.67;;;7.93;;
69463;SDS011;56665;41.106;16.688;2023-04-03T09:31:20;18.20;;;8.95;;
69463;SDS011;56665;41.106;16.688;2023-04-03T09:34:36;16.02;;;7.82;;
69463;SDS011;56665;41.106;16.688;2023-04-03T09:37:50;19.88;;;7.50;;
69463;SDS011;56665;41.106;16.688;2023-04-03T09:41:16;15.05;;;7.38;;
69463;SDS011;56665;41.106;16.688;2023-04-03T09:44:22;17.48;;;8.30;;
69463;SDS011;56665;41.106;16.688;2023-04-03T09:47:35;18.67;;;10.38;;
69463;SDS011;56665;41.106;16.688;2023-04-03T09:51:01;14.45;;;6.88;;
69463;SDS011;56665;41.106;16.688;2023-04-03T09:57:32;14.98;;;7.65;;
69463;SDS011;56665;41.106;16.688;2023-04-03T10:00:37;15.38;;;6.38;;
69463;SDS011;56665;41.106;16.688;2023-04-03T10:03:43;17.55;;;5.70;;
69463;SDS011;56665;41.106;16.688;2023-04-03T10:06:54;11.38;;;5.18;;
69463;SDS011;56665;41.106;16.688;2023-04-03T10:09:59;12.13;;;4.97;;
69463;SDS011;56665;41.106;16.688;2023-04-03T10:13:20;9.38;;;5.10;;
69463;SDS011;56665;41.106;16.688;2023-04-03T10:26:28;11.00;;;4.82;;
69463;SDS011;56665;41.106;16.688;2023-04-03T10:29:46;10.02;;;4.13;;
69463;SDS011;56665;41.106;16.688;2023-04-03T10:56:35;14.30;;;6.93;;
69463;SDS011;56665;41.106;16.688;2023-04-03T10:59:49;12.63;;;5.70;;
69463;SDS011;56665;41.106;16.688;2023-04-03T11:03:02;10.63;;;5.88;;
69463;SDS011;56665;41.106;16.688;2023-04-03T11:06:10;18.75;;;8.40;;
69463;SDS011;56665;41.106;16.688;2023-04-03T11:09:26;19.38;;;7.55;;
69463;SDS011;56665;41.106;16.688;2023-04-03T11:12:40;22.73;;;10.48;;
69463;SDS011;56665;41.106;16.688;2023-04-03T11:15:47;16.92;;;6.20;;
69463;SDS011;56665;41.106;16.688;2023-04-03T11:18:56;18.00;;;7.50;;
69463;SDS011;56665;41.106;16.688;2023-04-03T11:22:10;14.85;;;5.93;;
69463;SDS011;56665;41.106;16.688;2023-04-03T11:25:41;17.98;;;5.07;;
69463;SDS011;56665;41.106;16.688;2023-04-03T11:28:46;15.93;;;7.60;;
69463;SDS011;56665;41.106;16.688;2023-04-03T11:35:34;9.00;;;4.60;;
69463;SDS011;56665;41.106;16.688;2023-04-03T11:38:41;13.35;;;4.85;;
69463;SDS011;56665;41.106;16.688;2023-04-03T11:41:47;11.60;;;5.75;;
69463;SDS011;56665;41.106;16.688;2023-04-03T11:44:51;19.20;;;8.23;;
69463;SDS011;56665;41.106;16.688;2023-04-03T11:51:38;15.15;;;7.75;;
69463;SDS011;56665;41.106;16.688;2023-04-03T11:54:45;16.38;;;6.25;;
69463;SDS011;56665;41.106;16.688;2023-04-03T12:01:05;16.13;;;4.95;;
69463;SDS011;56665;41.106;16.688;2023-04-03T12:04:10;17.17;;;5.70;;
69463;SDS011;56665;41.106;16.688;2023-04-03T12:07:18;10.77;;;5.45;;
69463;SDS011;56665;41.106;16.688;2023-04-03T12:10:22;11.45;;;4.30;;
69463;SDS011;56665;41.106;16.688;2023-04-03T12:13:27;14.48;;;4.30;;
69463;SDS011;56665;41.106;16.688;2023-04-03T12:19:44;12.83;;;4.37;;
69463;SDS011;56665;41.106;16.688;2023-04-03T12:29:58;9.13;;;4.40;;
69463;SDS011;56665;41.106;16.688;2023-04-03T12:33:12;11.95;;;5.45;;
69463;SDS011;56665;41.106;16.688;2023-04-03T12:36:35;16.55;;;4.70;;
69463;SDS011;56665;41.106;16.688;2023-04-03T12:39:45;14.15;;;4.85;;
69463;SDS011;56665;41.106;16.688;2023-04-03T12:46:23;14.93;;;6.25;;
69463;SDS011;56665;41.106;16.688;2023-04-03T12:52:40;15.73;;;6.23;;
69463;SDS011;56665;41.106;16.688;2023-04-03T12:55:47;13.20;;;6.47;;
69463;SDS011;56665;41.106;16.688;2023-04-03T13:02:37;14.40;;;6.13;;
69463;SDS011;56665;41.106;16.688;2023-04-03T13:05:44;21.27;;;8.93;;
69463;SDS011;56665;41.106;16.688;2023-04-03T13:08:52;13.32;;;6.85;;
69463;SDS011;56665;41.106;16.688;2023-04-03T13:12:01;16.13;;;6.30;;
69463;SDS011;56665;41.106;16.688;2023-04-03T13:15:19;12.25;;;5.40;;
69463;SDS011;56665;41.106;16.688;2023-04-03T13:18:32;15.68;;;6.40;;
69463;SDS011;56665;41.106;16.688;2023-04-03T13:21:37;11.07;;;5.10;;
69463;SDS011;56665;41.106;16.688;2023-04-03T13:24:42;16.83;;;4.85;;
69463;SDS011;56665;41.106;16.688;2023-04-03T13:27:49;12.15;;;5.40;;
69463;SDS011;56665;41.106;16.688;2023-04-03T13:31:06;11.27;;;4.10;;
69463;SDS011;56665;41.106;16.688;2023-04-03T13:34:15;15.90;;;6.07;;
69463;SDS011;56665;41.106;16.688;2023-04-03T13:37:30;25.42;;;7.68;;
69463;SDS011;56665;41.106;16.688;2023-04-03T13:41:00;23.70;;;7.82;;
69463;SDS011;56665;41.106;16.688;2023-04-03T13:47:24;22.08;;;11.23;;
69463;SDS011;56665;41.106;16.688;2023-04-03T13:50:28;16.50;;;7.15;;
69463;SDS011;56665;41.106;16.688;2023-04-03T13:53:33;15.20;;;6.90;;
69463;SDS011;56665;41.106;16.688;2023-04-03T13:56:44;15.43;;;7.47;;
69463;SDS011;56665;41.106;16.688;2023-04-03T13:59:48;11.57;;;6.03;;
69463;SDS011;56665;41.106;16.688;2023-04-03T14:02:54;25.45;;;10.63;;
69463;SDS011;56665;41.106;16.688;2023-04-03T14:05:59;25.45;;;11.43;;
69463;SDS011;56665;41.106;16.688;2023-04-03T14:09:04;24.42;;;12.13;;
69463;SDS011;56665;41.106;16.688;2023-04-03T14:12:12;26.10;;;10.37;;
69463;SDS011;56665;41.106;16.688;2023-04-03T14:15:26;20.45;;;9.07;;
69463;SDS011;56665;41.106;16.688;2023-04-03T14:18:31;19.17;;;9.48;;
69463;SDS011;56665;41.106;16.688;2023-04-03T14:21:37;17.40;;;7.68;;
69463;SDS011;56665;41.106;16.688;2023-04-03T14:24:40;16.08;;;8.57;;
69463;SDS011;56665;41.106;16.688;2023-04-03T14:27:46;18.60;;;8.50;;
69463;SDS011;56665;41.106;16.688;2023-04-03T14:30:52;22.90;;;8.00;;
69463;SDS011;56665;41.106;16.688;2023-04-03T14:33:55;16.85;;;8.00;;
69463;SDS011;56665;41.106;16.688;2023-04-03T14:37:00;15.07;;;7.00;;
69463;SDS011;56665;41.106;16.688;2023-04-03T14:40:04;17.58;;;6.63;;
69463;SDS011;56665;41.106;16.688;2023-04-03T14:43:12;12.67;;;6.50;;
69463;SDS011;56665;41.106;16.688;2023-04-03T14:46:37;14.52;;;5.85;;
69463;SDS011;56665;41.106;16.688;2023-04-03T14:49:41;11.55;;;5.47;;
69463;SDS011;56665;41.106;16.688;2023-04-03T14:52:44;9.98;;;5.15;;
69463;SDS011;56665;41.106;16.688;2023-04-03T14:55:48;12.25;;;5.88;;
69463;SDS011;56665;41.106;16.688;2023-04-03T14:58:57;14.73;;;6.37;;
69463;SDS011;56665;41.106;16.688;2023-04-03T15:02:02;11.65;;;5.32;;
69463;SDS011;56665;41.106;16.688;2023-04-03T15:05:11;11.85;;;7.35;;
69463;SDS011;56665;41.106;16.688;2023-04-03T15:08:22;15.95;;;6.72;;
69463;SDS011;56665;41.106;16.688;2023-04-03T15:11:27;14.10;;;6.47;;
69463;SDS011;56665;41.106;16.688;2023-04-03T15:14:31;11.43;;;6.50;;
69463;SDS011;56665;41.106;16.688;2023-04-03T15:17:35;13.60;;;7.22;;
69463;SDS011;56665;41.106;16.688;2023-04-03T15:20:39;15.85;;;7.05;;
69463;SDS011;56665;41.106;16.688;2023-04-03T15:23:44;15.63;;;6.90;;
69463;SDS011;56665;41.106;16.688;2023-04-03T15:26:48;12.50;;;6.88;;
69463;SDS011;56665;41.106;16.688;2023-04-03T15:29:53;14.83;;;7.83;;
69463;SDS011;56665;41.106;16.688;2023-04-03T15:32:57;14.52;;;8.90;;
69463;SDS011;56665;41.106;16.688;2023-04-03T15:36:02;15.93;;;9.00;;
69463;SDS011;56665;41.106;16.688;2023-04-03T15:39:08;19.10;;;9.23;;
69463;SDS011;56665;41.106;16.688;2023-04-03T15:42:11;13.88;;;7.70;;
69463;SDS011;56665;41.106;16.688;2023-04-03T15:45:15;14.10;;;8.37;;
69463;SDS011;56665;41.106;16.688;2023-04-03T15:48:19;14.15;;;8.60;;
69463;SDS011;56665;41.106;16.688;2023-04-03T15:51:23;13.27;;;8.90;;
69463;SDS011;56665;41.106;16.688;2023-04-03T15:54:27;14.77;;;8.27;;
69463;SDS011;56665;41.106;16.688;2023-04-03T15:57:32;12.82;;;8.68;;
69463;SDS011;56665;41.106;16.688;2023-04-03T16:00:36;13.97;;;8.07;;
69463;SDS011;56665;41.106;16.688;2023-04-03T16:03:42;13.52;;;7.68;;
69463;SDS011;56665;41.106;16.688;2023-04-03T16:06:48;11.38;;;7.05;;
69463;SDS011;56665;41.106;16.688;2023-04-03T16:09:52;16.35;;;8.35;;
69463;SDS011;56665;41.106;16.688;2023-04-03T16:12:56;15.60;;;8.60;;
69463;SDS011;56665;41.106;16.688;2023-04-03T16:16:00;14.73;;;9.00;;
69463;SDS011;56665;41.106;16.688;2023-04-03T16:19:04;16.73;;;8.98;;
69463;SDS011;56665;41.106;16.688;2023-04-03T16:22:09;13.15;;;8.88;;
69463;SDS011;56665;41.106;16.688;2023-04-03T16:25:13;16.23;;;9.00;;
69463;SDS011;56665;41.106;16.688;2023-04-03T16:28:17;15.32;;;8.20;;
69463;SDS011;56665;41.106;16.688;2023-04-03T16:31:22;13.43;;;8.47;;
69463;SDS011;56665;41.106;16.688;2023-04-03T16:34:29;30.90;;;14.93;;
69463;SDS011;56665;41.106;16.688;2023-04-03T16:37:35;31.08;;;14.90;;
69463;SDS011;56665;41.106;16.688;2023-04-03T16:40:39;42.25;;;18.85;;
69463;SDS011;56665;41.106;16.688;2023-04-03T16:43:43;29.83;;;16.40;;
69463;SDS011;56665;41.106;16.688;2023-04-03T16:46:47;23.67;;;11.10;;
69463;SDS011;56665;41.106;16.688;2023-04-03T16:49:50;18.27;;;8.90;;
69463;SDS011;56665;41.106;16.688;2023-04-03T16:52:54;19.05;;;10.48;;
69463;SDS011;56665;41.106;16.688;2023-04-03T16:55:58;20.52;;;11.52;;
69463;SDS011;56665;41.106;16.688;2023-04-03T16:59:04;15.52;;;8.30;;
69463;SDS011;56665;41.106;16.688;2023-04-03T17:02:09;12.43;;;8.50;;
69463;SDS011;56665;41.106;16.688;2023-04-03T17:05:12;17.05;;;9.32;;
69463;SDS011;56665;41.106;16.688;2023-04-03T17:08:17;12.75;;;8.18;;
69463;SDS011;56665;41.106;16.688;2023-04-03T17:11:21;14.13;;;7.82;;
69463;SDS011;56665;41.106;16.688;2023-04-03T17:14:25;15.02;;;7.65;;
69463;SDS011;56665;41.106;16.688;2023-04-03T17:17:29;13.33;;;8.53;;
69463;SDS011;56665;41.106;16.688;2023-04-03T17:20:32;16.10;;;9.35;;
69463;SDS011;56665;41.106;16.688;2023-04-03T17:23:37;13.75;;;9.68;;
69463;SDS011;56665;41.106;16.688;2023-04-03T17:26:43;13.02;;;8.90;;
69463;SDS011;56665;41.106;16.688;2023-04-03T17:29:46;16.08;;;9.48;;
69463;SDS011;56665;41.106;16.688;2023-04-03T17:32:50;15.40;;;9.93;;
69463;SDS011;56665;41.106;16.688;2023-04-03T17:35:57;25.55;;;14.10;;
69463;SDS011;56665;41.106;16.688;2023-04-03T17:39:04;23.80;;;14.38;;
69463;SDS011;56665;41.106;16.688;2023-04-03T17:42:08;26.70;;;15.40;;
69463;SDS011;56665;41.106;16.688;2023-04-03T17:45:12;25.60;;;15.10;;
69463;SDS011;56665;41.106;16.688;2023-04-03T17:48:16;25.83;;;13.00;;
69463;SDS011;56665;41.106;16.688;2023-04-03T17:51:20;21.02;;;10.88;;
69463;SDS011;56665;41.106;16.688;2023-04-03T17:54:25;23.45;;;13.55;;
69463;SDS011;56665;41.106;16.688;2023-04-03T17:57:29;30.10;;;16.20;;
69463;SDS011;56665;41.106;16.688;2023-04-03T18:00:35;29.75;;;16.55;;
69463;SDS011;56665;41.106;16.688;2023-04-03T18:03:39;41.43;;;22.73;;
69463;SDS011;56665;41.106;16.688;2023-04-03T18:06:45;24.48;;;14.80;;
69463;SDS011;56665;41.106;16.688;2023-04-03T18:09:51;19.17;;;12.35;;
69463;SDS011;56665;41.106;16.688;2023-04-03T18:12:55;27.85;;;13.23;;
69463;SDS011;56665;41.106;16.688;2023-04-03T18:15:59;21.88;;;12.82;;
69463;SDS011;56665;41.106;16.688;2023-04-03T18:19:03;23.23;;;12.70;;
69463;SDS011;56665;41.106;16.688;2023-04-03T18:22:07;19.83;;;10.90;;
69463;SDS011;56665;41.106;16.688;2023-04-03T18:25:17;20.17;;;9.23;;
69463;SDS011;56665;41.106;16.688;2023-04-03T18:28:21;14.13;;;8.32;;
69463;SDS011;56665;41.106;16.688;2023-04-03T18:31:25;15.73;;;8.60;;
69463;SDS011;56665;41.106;16.688;2023-04-03T18:34:32;16.77;;;8.93;;
69463;SDS011;56665;41.106;16.688;2023-04-03T18:37:36;17.80;;;9.50;;
69463;SDS011;56665;41.106;16.688;2023-04-03T18:40:40;16.05;;;10.05;;
69463;SDS011;56665;41.106;16.688;2023-04-03T18:43:44;23.08;;;10.77;;
69463;SDS011;56665;41.106;16.688;2023-04-03T18:46:48;15.90;;;8.48;;
69463;SDS011;56665;41.106;16.688;2023-04-03T18:49:52;15.33;;;6.77;;
69463;SDS011;56665;41.106;16.688;2023-04-03T18:52:56;16.65;;;6.38;;
69463;SDS011;56665;41.106;16.688;2023-04-03T18:56:00;14.80;;;4.80;;
69463;SDS011;56665;41.106;16.688;2023-04-03T18:59:03;12.07;;;4.60;;
69463;SDS011;56665;41.106;16.688;2023-04-03T19:02:07;18.40;;;4.68;;
69463;SDS011;56665;41.106;16.688;2023-04-03T19:05:13;19.87;;;5.70;;
69463;SDS011;56665;41.106;16.688;2023-04-03T19:08:19;11.15;;;4.20;;
69463;SDS011;56665;41.106;16.688;2023-04-03T19:11:23;12.75;;;4.35;;
69463;SDS011;56665;41.106;16.688;2023-04-03T19:14:26;13.93;;;4.97;;
69463;SDS011;56665;41.106;16.688;2023-04-03T19:17:30;15.75;;;4.50;;
69463;SDS011;56665;41.106;16.688;2023-04-03T19:20:34;18.90;;;5.27;;
69463;SDS011;56665;41.106;16.688;2023-04-03T19:23:38;15.65;;;5.30;;
69463;SDS011;56665;41.106;16.688;2023-04-03T19:26:45;13.98;;;4.70;;
69463;SDS011;56665;41.106;16.688;2023-04-03T19:29:49;20.90;;;5.25;;
69463;SDS011;56665;41.106;16.688;2023-04-03T19:32:53;12.63;;;4.47;;
69463;SDS011;56665;41.106;16.688;2023-04-03T19:35:57;15.53;;;5.30;;
69463;SDS011;56665;41.106;16.688;2023-04-03T19:39:02;14.68;;;5.32;;
69463;SDS011;56665;41.106;16.688;2023-04-03T19:42:07;17.50;;;6.50;;